createdAt,value
2019-03-26T00:00:49.174Z,95.12
2019-03-26T00:01:49.173Z,94.74
2019-03-26T00:02:49.172Z,94.46
2019-03-26T00:03:49.175Z,94.27
2019-03-26T00:04:49.184Z,93.13
2019-03-26T00:05:49.184Z,92.66
2019-03-26T00:06:49.185Z,92.57
2019-03-26T00:07:49.195Z,92.76
2019-03-26T00:08:49.194Z,92.76
2019-03-26T00:09:49.200Z,92.76
2019-03-26T00:10:49.198Z,92.85
2019-03-26T00:11:49.208Z,92.95
2019-03-26T00:12:49.211Z,92.95
2019-03-26T00:13:49.215Z,93.42
2019-03-26T00:14:49.219Z,92.85
2019-03-26T00:15:49.217Z,92.66
2019-03-26T00:16:49.224Z,92.57
2019-03-26T00:17:49.227Z,93.51
2019-03-26T00:18:49.231Z,98.94
2019-03-26T00:19:49.230Z,99.99
2019-03-26T00:20:49.233Z,99.99
2019-03-26T00:21:49.237Z,99.99
2019-03-26T00:22:49.243Z,99.99
2019-03-26T00:23:49.245Z,99.99
2019-03-26T00:24:49.249Z,99.99
2019-03-26T00:25:49.260Z,99.99
2019-03-26T00:26:49.253Z,99.99
2019-03-26T00:27:49.258Z,99.99
2019-03-26T00:28:49.262Z,99.27
2019-03-26T00:29:49.264Z,99.08
2019-03-26T00:30:49.272Z,97.76
2019-03-26T00:31:49.274Z,97.80
2019-03-26T00:32:49.273Z,98.18
2019-03-26T00:33:49.278Z,98.56
2019-03-26T00:34:49.283Z,99.98
2019-03-26T00:35:49.320Z,98.94
2019-03-26T00:36:49.299Z,99.41
2019-03-26T00:37:49.293Z,99.99
2019-03-26T00:38:49.423Z,99.99
2019-03-26T00:39:49.300Z,99.99
2019-03-26T00:40:49.303Z,99.99
2019-03-26T00:41:49.306Z,99.99
2019-03-26T00:42:49.305Z,99.99
2019-03-26T00:43:49.314Z,99.99
2019-03-26T00:44:49.315Z,99.99
2019-03-26T00:45:49.319Z,99.99
2019-03-26T00:46:49.320Z,99.99
2019-03-26T00:47:49.320Z,99.99
2019-03-26T00:48:49.324Z,99.99
2019-03-26T00:49:49.330Z,99.99
2019-03-26T00:50:49.335Z,99.99
2019-03-26T00:51:49.334Z,99.99
2019-03-26T00:52:49.349Z,98.61
2019-03-26T00:53:49.344Z,96.77
2019-03-26T00:54:49.340Z,98.56
2019-03-26T00:55:49.361Z,99.51
2019-03-26T00:56:49.353Z,99.99
2019-03-26T00:57:49.358Z,99.99
2019-03-26T00:58:49.354Z,99.99
2019-03-26T00:59:49.355Z,99.99
2019-03-26T01:00:49.360Z,99.99
2019-03-26T01:01:49.365Z,98.52
2019-03-26T01:02:49.382Z,97.90
2019-03-26T01:03:49.369Z,98.47
2019-03-26T01:04:49.375Z,98.28
2019-03-26T01:05:49.373Z,99.99
2019-03-26T01:06:49.379Z,99.99
2019-03-26T01:07:49.384Z,99.99
2019-03-26T01:08:49.384Z,99.99
2019-03-26T01:09:49.386Z,98.80
2019-03-26T01:10:49.396Z,98.04
2019-03-26T01:11:49.389Z,96.72
2019-03-26T01:12:49.397Z,95.03
2019-03-26T01:13:49.399Z,95.12
2019-03-26T01:14:49.396Z,96.53
2019-03-26T01:15:49.404Z,97.10
2019-03-26T01:16:49.405Z,97.95
2019-03-26T01:17:49.410Z,97.85
2019-03-26T01:18:49.411Z,97.85
2019-03-26T01:19:49.416Z,97.85
2019-03-26T01:20:49.422Z,97.85
2019-03-26T01:21:49.418Z,97.85
2019-03-26T01:22:49.423Z,97.29
2019-03-26T01:23:49.428Z,96.81
2019-03-26T01:24:49.430Z,96.81
2019-03-26T01:25:49.438Z,95.50
2019-03-26T01:26:49.434Z,93.89
2019-03-26T01:27:49.442Z,93.61
2019-03-26T01:28:49.441Z,93.13
2019-03-26T01:29:49.443Z,92.00
2019-03-26T01:30:49.449Z,91.25
2019-03-26T01:31:49.446Z,90.78
2019-03-26T01:32:49.453Z,91.63
2019-03-26T01:33:49.456Z,91.63
2019-03-26T01:34:49.456Z,90.78
2019-03-26T01:35:49.464Z,90.97
2019-03-26T01:36:49.460Z,90.87
2019-03-26T01:37:49.465Z,90.40
2019-03-26T01:38:49.467Z,90.78
2019-03-26T01:39:49.472Z,91.91
2019-03-26T01:40:49.474Z,92.47
2019-03-26T01:41:49.478Z,92.66
2019-03-26T01:42:49.487Z,93.13
2019-03-26T01:43:49.484Z,91.06
2019-03-26T01:44:49.495Z,89.36
2019-03-26T01:45:49.493Z,89.17
2019-03-26T01:46:49.499Z,89.17
2019-03-26T01:47:49.500Z,89.36
2019-03-26T01:48:49.503Z,89.93
2019-03-26T01:49:49.508Z,90.50
2019-03-26T01:50:49.512Z,91.16
2019-03-26T01:51:49.511Z,91.72
2019-03-26T01:52:49.513Z,90.87
2019-03-26T01:53:49.521Z,90.40
2019-03-26T01:54:49.521Z,89.45
2019-03-26T01:55:49.526Z,89.74
2019-03-26T01:56:49.525Z,89.64
2019-03-26T01:57:49.529Z,91.44
2019-03-26T01:58:49.535Z,91.06
2019-03-26T01:59:49.536Z,91.35
2019-03-26T02:00:49.542Z,90.87
2019-03-26T02:01:49.542Z,90.78
2019-03-26T02:02:49.551Z,90.87
2019-03-26T02:03:49.548Z,91.06
2019-03-26T02:04:59.276Z,92.38
2019-03-26T02:05:49.560Z,92.57
2019-03-26T02:06:49.561Z,92.57
2019-03-26T02:07:49.565Z,94.36
2019-03-26T02:08:49.568Z,94.65
2019-03-26T02:09:49.569Z,95.12
2019-03-26T02:10:49.572Z,95.12
2019-03-26T02:11:49.577Z,95.50
2019-03-26T02:12:49.590Z,95.31
2019-03-26T02:13:49.584Z,95.31
2019-03-26T02:14:49.589Z,95.50
2019-03-26T02:15:49.590Z,95.87
2019-03-26T02:16:49.595Z,98.04
2019-03-26T02:17:49.595Z,99.99
2019-03-26T02:18:49.599Z,99.99
2019-03-26T02:19:49.602Z,99.99
2019-03-26T02:20:49.608Z,99.99
2019-03-26T02:21:49.611Z,99.99
2019-03-26T02:22:49.612Z,99.99
2019-03-26T02:23:49.616Z,99.99
2019-03-26T02:24:49.619Z,99.99
2019-03-26T02:25:49.624Z,99.99
2019-03-26T02:26:49.625Z,99.99
2019-03-26T02:27:49.631Z,99.99
2019-03-26T02:28:49.635Z,99.99
2019-03-26T02:29:49.641Z,99.99
2019-03-26T02:30:49.643Z,99.55
2019-03-26T02:31:49.648Z,99.18
2019-03-26T02:32:49.646Z,98.23
2019-03-26T02:33:49.649Z,97.67
2019-03-26T02:34:49.772Z,97.57
2019-03-26T02:35:49.660Z,97.95
2019-03-26T02:36:49.666Z,98.14
2019-03-26T02:37:49.669Z,99.08
2019-03-26T02:38:49.666Z,98.61
2019-03-26T02:39:49.675Z,98.42
2019-03-26T02:40:49.681Z,98.23
2019-03-26T02:41:49.680Z,97.76
2019-03-26T02:42:49.682Z,97.67
2019-03-26T02:43:49.684Z,96.81
2019-03-26T02:44:49.689Z,95.97
2019-03-26T02:45:49.696Z,95.50
2019-03-26T02:46:49.694Z,96.15
2019-03-26T02:47:49.703Z,96.63
2019-03-26T02:48:49.702Z,97.85
2019-03-26T02:49:49.708Z,97.67
2019-03-26T02:50:49.708Z,97.95
2019-03-26T02:51:49.710Z,97.95
2019-03-26T02:52:49.714Z,97.38
2019-03-26T02:53:49.720Z,96.15
2019-03-26T02:54:49.720Z,95.68
2019-03-26T02:55:49.727Z,95.21
2019-03-26T02:56:49.741Z,93.23
2019-03-26T02:57:49.733Z,93.13
2019-03-26T02:58:49.741Z,92.19
2019-03-26T02:59:49.744Z,90.78
2019-03-26T03:00:49.746Z,90.31
2019-03-26T03:01:49.750Z,91.44
2019-03-26T03:02:49.756Z,92.95
2019-03-26T03:03:49.757Z,94.18
2019-03-26T03:04:49.759Z,97.76
2019-03-26T03:05:49.758Z,99.99
2019-03-26T03:06:49.768Z,99.99
2019-03-26T03:07:49.766Z,99.99
2019-03-26T03:08:49.773Z,99.99
2019-03-26T03:09:49.784Z,99.99
2019-03-26T03:10:49.779Z,99.65
2019-03-26T03:11:49.777Z,95.68
2019-03-26T03:12:49.780Z,92.85
2019-03-26T03:13:49.787Z,92.19
2019-03-26T03:14:49.792Z,91.16
2019-03-26T03:15:49.798Z,90.12
2019-03-26T03:16:49.801Z,89.55
2019-03-26T03:17:49.809Z,88.23
2019-03-26T03:18:49.803Z,87.76
2019-03-26T03:19:49.809Z,87.48
2019-03-26T03:20:49.811Z,89.36
2019-03-26T03:21:49.811Z,93.42
2019-03-26T03:22:49.822Z,96.15
2019-03-26T03:23:49.817Z,96.72
2019-03-26T03:24:49.835Z,95.68
2019-03-26T03:25:49.828Z,92.47
2019-03-26T03:26:49.837Z,90.68
2019-03-26T03:27:49.831Z,89.55
2019-03-26T03:28:49.836Z,88.04
2019-03-26T03:29:49.839Z,87.66
2019-03-26T03:30:49.841Z,87.29
2019-03-26T03:31:49.896Z,87.48
2019-03-26T03:32:49.851Z,87.19
2019-03-26T03:33:49.858Z,86.34
2019-03-26T03:34:49.858Z,85.68
2019-03-26T03:35:52.787Z,84.08
2019-03-26T03:36:49.862Z,82.85
2019-03-26T03:37:49.880Z,82.76
2019-03-26T03:38:49.866Z,82.47
2019-03-26T03:39:49.874Z,83.33
2019-03-26T03:40:49.886Z,83.61
2019-03-26T03:41:49.876Z,83.89
2019-03-26T03:42:49.883Z,84.08
2019-03-26T03:43:49.890Z,83.98
2019-03-26T03:44:49.888Z,83.98
2019-03-26T03:45:49.890Z,83.98
2019-03-26T03:46:49.901Z,83.80
2019-03-26T03:47:49.902Z,83.98
2019-03-26T03:48:49.902Z,83.23
2019-03-26T03:49:49.909Z,83.51
2019-03-26T03:50:49.918Z,83.23
2019-03-26T03:51:49.912Z,82.85
2019-03-26T03:52:49.953Z,82.95
2019-03-26T03:53:49.921Z,83.04
2019-03-26T03:54:49.922Z,82.95
2019-03-26T03:55:49.928Z,82.85
2019-03-26T03:56:49.928Z,83.04
2019-03-26T03:57:52.823Z,84.45
2019-03-26T03:58:49.938Z,85.68
2019-03-26T03:59:49.941Z,86.72
2019-03-26T04:00:49.948Z,87.57
2019-03-26T04:01:49.954Z,87.66
2019-03-26T04:02:49.954Z,87.66
2019-03-26T04:03:49.951Z,87.00
2019-03-26T04:04:49.954Z,87.29
2019-03-26T04:05:49.960Z,87.10
2019-03-26T04:06:49.964Z,87.48
2019-03-26T04:07:49.966Z,87.43
2019-03-26T04:08:49.965Z,87.34
2019-03-26T04:09:49.970Z,87.15
2019-03-26T04:10:49.970Z,87.66
2019-03-26T04:11:49.979Z,87.43
2019-03-26T04:12:49.978Z,87.66
2019-03-26T04:13:49.986Z,87.29
2019-03-26T04:14:49.986Z,87.43
2019-03-26T04:15:50.015Z,87.15
2019-03-26T04:16:49.994Z,87.71
2019-03-26T04:17:50.000Z,88.09
2019-03-26T04:18:50.016Z,87.43
2019-03-26T04:19:49.999Z,87.05
2019-03-26T04:20:50.002Z,87.43
2019-03-26T04:21:50.004Z,87.52
2019-03-26T04:22:50.014Z,87.43
2019-03-26T04:23:50.013Z,87.81
2019-03-26T04:24:50.027Z,87.24
2019-03-26T04:25:50.024Z,87.34
2019-03-26T04:26:50.018Z,86.58
2019-03-26T04:27:50.022Z,86.58
2019-03-26T04:28:50.043Z,86.58
2019-03-26T04:29:50.030Z,86.96
2019-03-26T04:30:50.032Z,87.90
2019-03-26T04:31:50.037Z,87.90
2019-03-26T04:32:50.041Z,87.90
2019-03-26T04:33:50.038Z,88.18
2019-03-26T04:34:50.047Z,88.18
2019-03-26T04:35:50.047Z,88.28
2019-03-26T04:36:50.056Z,88.47
2019-03-26T04:37:50.055Z,88.37
2019-03-26T04:38:50.056Z,87.81
2019-03-26T04:39:50.061Z,87.62
2019-03-26T04:40:50.058Z,87.43
2019-03-26T04:41:50.064Z,87.43
2019-03-26T04:42:50.066Z,87.81
2019-03-26T04:43:50.070Z,87.52
2019-03-26T04:44:50.075Z,87.71
2019-03-26T04:45:50.069Z,88.28
2019-03-26T04:46:50.072Z,88.09
2019-03-26T04:47:50.077Z,87.81
2019-03-26T04:48:50.080Z,87.62
2019-03-26T04:49:50.080Z,87.52
2019-03-26T04:50:50.083Z,88.37
2019-03-26T04:51:50.090Z,88.47
2019-03-26T04:52:50.089Z,88.28
2019-03-26T04:53:50.095Z,88.09
2019-03-26T04:54:50.095Z,87.81
2019-03-26T04:55:50.102Z,86.96
2019-03-26T04:56:50.099Z,87.52
2019-03-26T04:57:50.110Z,88.47
2019-03-26T04:58:50.112Z,88.84
2019-03-26T04:59:50.108Z,89.03
2019-03-26T05:00:50.112Z,89.60
2019-03-26T05:01:50.119Z,90.26
2019-03-26T05:02:50.118Z,90.07
2019-03-26T05:03:50.122Z,90.26
2019-03-26T05:04:50.127Z,90.07
2019-03-26T05:05:50.125Z,90.36
2019-03-26T05:06:50.130Z,89.69
2019-03-26T05:07:50.130Z,89.79
2019-03-26T05:08:50.137Z,90.17
2019-03-26T05:09:50.141Z,90.07
2019-03-26T05:10:50.141Z,89.60
2019-03-26T05:11:50.145Z,88.84
2019-03-26T05:12:50.147Z,88.47
2019-03-26T05:13:50.147Z,88.37
2019-03-26T05:14:50.152Z,87.81
2019-03-26T05:15:50.152Z,88.09
2019-03-26T05:16:50.159Z,88.75
2019-03-26T05:17:50.163Z,88.75
2019-03-26T05:18:50.165Z,89.13
2019-03-26T05:19:50.168Z,88.47
2019-03-26T05:20:50.165Z,88.47
2019-03-26T05:21:50.170Z,87.81
2019-03-26T05:22:50.171Z,87.15
2019-03-26T05:23:51.876Z,87.52
2019-03-26T05:24:50.180Z,86.96
2019-03-26T05:25:50.182Z,86.68
2019-03-26T05:26:50.182Z,86.77
2019-03-26T05:27:50.185Z,86.68
2019-03-26T05:28:50.187Z,85.92
2019-03-26T05:29:50.191Z,86.02
2019-03-26T05:30:50.194Z,85.54
2019-03-26T05:31:50.196Z,85.64
2019-03-26T05:32:50.200Z,85.73
2019-03-26T05:33:50.204Z,85.36
2019-03-26T05:34:50.205Z,84.98
2019-03-26T05:35:51.584Z,84.98
2019-03-26T05:36:51.517Z,84.98
2019-03-26T05:37:50.217Z,84.88
2019-03-26T05:38:50.220Z,84.60
2019-03-26T05:39:50.223Z,84.69
2019-03-26T05:40:50.229Z,84.69
2019-03-26T05:41:50.229Z,84.41
2019-03-26T05:42:50.235Z,84.13
2019-03-26T05:43:50.229Z,84.41
2019-03-26T05:44:50.236Z,84.22
2019-03-26T05:45:50.241Z,84.13
2019-03-26T05:46:50.253Z,83.94
2019-03-26T05:47:50.247Z,83.84
2019-03-26T05:48:50.249Z,83.47
2019-03-26T05:49:50.255Z,83.00
2019-03-26T05:50:50.255Z,82.81
2019-03-26T05:51:50.252Z,82.15
2019-03-26T05:52:50.260Z,81.68
2019-03-26T05:53:50.262Z,81.87
2019-03-26T05:54:50.265Z,81.68
2019-03-26T05:55:50.267Z,81.77
2019-03-26T05:56:50.278Z,81.68
2019-03-26T05:57:50.273Z,81.49
2019-03-26T05:58:50.271Z,81.49
2019-03-26T05:59:50.280Z,81.11
2019-03-26T06:00:50.282Z,80.73
2019-03-26T06:01:50.282Z,79.88
2019-03-26T06:02:50.284Z,79.50
2019-03-26T06:03:50.288Z,79.13
2019-03-26T06:04:50.290Z,79.03
2019-03-26T06:05:50.292Z,78.75
2019-03-26T06:06:50.297Z,78.66
2019-03-26T06:07:50.296Z,78.56
2019-03-26T06:08:50.303Z,78.38
2019-03-26T06:09:50.303Z,78.28
2019-03-26T06:10:50.306Z,78.09
2019-03-26T06:11:50.307Z,77.62
2019-03-26T06:12:50.504Z,77.91
2019-03-26T06:13:50.316Z,77.47
2019-03-26T06:14:50.320Z,77.66
2019-03-26T06:15:50.323Z,77.44
2019-03-26T06:16:50.330Z,77.53
2019-03-26T06:17:50.327Z,77.47
2019-03-26T06:18:50.330Z,77.62
2019-03-26T06:19:50.335Z,78.47
2019-03-26T06:20:50.340Z,79.22
2019-03-26T06:21:50.339Z,80.17
2019-03-26T06:22:50.338Z,80.17
2019-03-26T06:23:53.461Z,81.11
2019-03-26T06:24:50.347Z,81.02
2019-03-26T06:25:50.352Z,81.30
2019-03-26T06:26:50.349Z,81.68
2019-03-26T06:27:50.355Z,81.77
2019-03-26T06:28:50.357Z,81.11
2019-03-26T06:29:50.362Z,80.45
2019-03-26T06:30:50.361Z,79.98
2019-03-26T06:31:50.366Z,79.69
2019-03-26T06:32:50.365Z,79.79
2019-03-26T06:33:50.367Z,78.94
2019-03-26T06:34:50.370Z,79.64
2019-03-26T06:35:50.377Z,79.69
2019-03-26T06:36:50.381Z,79.55
2019-03-26T06:37:50.379Z,78.98
2019-03-26T06:38:50.385Z,78.75
2019-03-26T06:39:50.387Z,78.51
2019-03-26T06:40:50.391Z,78.51
2019-03-26T06:41:50.391Z,78.70
2019-03-26T06:42:50.396Z,78.42
2019-03-26T06:43:50.399Z,78.42
2019-03-26T06:44:50.403Z,78.04
2019-03-26T06:45:50.405Z,77.75
2019-03-26T06:46:50.411Z,77.47
2019-03-26T06:47:50.411Z,77.09
2019-03-26T06:48:50.411Z,76.72
2019-03-26T06:49:50.413Z,76.81
2019-03-26T06:50:50.420Z,76.72
2019-03-26T06:51:50.426Z,76.53
2019-03-26T06:52:50.426Z,75.96
2019-03-26T06:53:50.429Z,76.53
2019-03-26T06:54:51.902Z,76.81
2019-03-26T06:55:50.431Z,75.78
2019-03-26T06:56:50.438Z,76.43
2019-03-26T06:57:50.442Z,75.59
2019-03-26T06:58:50.441Z,75.49
2019-03-26T06:59:50.451Z,74.83
2019-03-26T07:00:50.458Z,75.59
2019-03-26T07:01:50.453Z,75.40
2019-03-26T07:02:50.461Z,74.55
2019-03-26T07:03:50.459Z,74.07
2019-03-26T07:04:50.465Z,73.69
2019-03-26T07:05:50.469Z,73.51
2019-03-26T07:06:50.490Z,72.85
2019-03-26T07:07:50.472Z,70.87
2019-03-26T07:08:50.478Z,69.45
2019-03-26T07:09:50.484Z,68.04
2019-03-26T07:10:50.483Z,67.50
2019-03-26T07:11:50.490Z,67.32
2019-03-26T07:12:50.494Z,66.65
2019-03-26T07:13:50.496Z,68.92
2019-03-26T07:14:50.500Z,71.19
2019-03-26T07:15:50.504Z,73.26
2019-03-26T07:16:50.503Z,73.64
2019-03-26T07:17:52.423Z,73.83
2019-03-26T07:18:50.514Z,74.68
2019-03-26T07:19:50.517Z,75.43
2019-03-26T07:20:50.520Z,75.71
2019-03-26T07:21:50.593Z,75.81
2019-03-26T07:22:50.528Z,75.81
2019-03-26T07:23:50.534Z,75.24
2019-03-26T07:24:50.533Z,75.24
2019-03-26T07:25:50.539Z,74.68
2019-03-26T07:26:50.541Z,74.21
2019-03-26T07:27:50.544Z,74.02
2019-03-26T07:28:50.547Z,74.87
2019-03-26T07:29:50.553Z,77.80
2019-03-26T07:30:50.556Z,77.80
2019-03-26T07:31:50.558Z,77.04
2019-03-26T07:32:50.562Z,79.97
2019-03-26T07:33:50.569Z,81.10
2019-03-26T07:34:50.570Z,80.06
2019-03-26T07:35:50.574Z,79.68
2019-03-26T07:36:50.580Z,80.06
2019-03-26T07:37:50.582Z,79.87
2019-03-26T07:38:50.585Z,79.21
2019-03-26T07:39:50.596Z,79.40
2019-03-26T07:40:50.604Z,80.34
2019-03-26T07:41:50.600Z,81.95
2019-03-26T07:42:50.603Z,81.48
2019-03-26T07:43:50.610Z,81.01
2019-03-26T07:44:50.610Z,81.85
2019-03-26T07:45:50.614Z,81.81
2019-03-26T07:46:50.621Z,80.77
2019-03-26T07:47:50.624Z,80.11
2019-03-26T07:48:50.630Z,80.11
2019-03-26T07:49:50.631Z,80.68
2019-03-26T07:50:50.631Z,82.28
2019-03-26T07:51:50.635Z,83.55
2019-03-26T07:52:50.641Z,82.99
2019-03-26T07:53:50.652Z,81.10
2019-03-26T07:54:50.650Z,81.10
2019-03-26T07:55:50.653Z,82.23
2019-03-26T07:56:50.658Z,82.89
2019-03-26T07:57:50.664Z,82.51
2019-03-26T07:58:50.665Z,82.89
2019-03-26T07:59:50.671Z,84.22
2019-03-26T08:00:50.671Z,84.12
2019-03-26T08:01:50.677Z,80.25
2019-03-26T08:02:50.685Z,82.42
2019-03-26T08:03:50.685Z,86.57
2019-03-26T08:04:50.686Z,85.44
2019-03-26T08:05:50.696Z,84.88
2019-03-26T08:06:50.699Z,85.06
2019-03-26T08:07:58.135Z,84.12
2019-03-26T08:08:50.709Z,84.78
2019-03-26T08:09:50.711Z,84.03
2019-03-26T08:10:50.728Z,83.74
2019-03-26T08:11:50.716Z,83.65
2019-03-26T08:12:50.721Z,82.89
2019-03-26T08:13:50.748Z,84.12
2019-03-26T08:14:50.744Z,86.95
2019-03-26T08:15:50.758Z,86.86
2019-03-26T08:16:50.737Z,86.95
2019-03-26T08:17:50.738Z,86.10
2019-03-26T08:18:50.742Z,85.44
2019-03-26T08:19:50.743Z,85.16
2019-03-26T08:20:50.750Z,86.48
2019-03-26T08:21:50.756Z,89.31
2019-03-26T08:22:50.755Z,84.69
2019-03-26T08:23:50.765Z,83.93
2019-03-26T08:24:50.770Z,83.08
2019-03-26T08:25:50.766Z,89.31
2019-03-26T08:26:52.176Z,89.31
2019-03-26T08:27:50.773Z,87.80
2019-03-26T08:28:50.782Z,88.75
2019-03-26T08:29:50.786Z,92.52
2019-03-26T08:30:50.811Z,91.67
2019-03-26T08:31:50.790Z,94.79
2019-03-26T08:32:50.804Z,90.54
2019-03-26T08:33:50.796Z,90.07
2019-03-26T08:34:50.800Z,91.15
2019-03-26T08:35:50.804Z,89.92
2019-03-26T08:36:50.808Z,89.54
2019-03-26T08:37:50.818Z,89.07
2019-03-26T08:38:50.820Z,89.07
2019-03-26T08:39:50.827Z,91.44
2019-03-26T08:40:50.825Z,91.58
2019-03-26T08:41:50.829Z,91.96
2019-03-26T08:42:50.831Z,97.67
2019-03-26T08:43:50.836Z,96.91
2019-03-26T08:44:50.844Z,94.93
2019-03-26T08:45:50.851Z,90.02
2019-03-26T08:46:50.853Z,95.50
2019-03-26T08:47:50.859Z,96.25
2019-03-26T08:48:50.914Z,92.00
2019-03-26T08:49:50.862Z,93.04
2019-03-26T08:50:50.869Z,91.91
2019-03-26T08:51:50.885Z,88.60
2019-03-26T08:52:50.879Z,86.80
2019-03-26T08:53:50.889Z,91.06
2019-03-26T08:54:50.887Z,90.49
2019-03-26T08:55:50.889Z,87.66
2019-03-26T08:56:50.901Z,89.64
2019-03-26T08:57:50.897Z,95.78
2019-03-26T08:58:50.901Z,91.91
2019-03-26T08:59:50.905Z,92.66
2019-03-26T09:00:50.914Z,89.45
2019-03-26T09:01:50.915Z,91.39
2019-03-26T09:02:50.920Z,89.73
2019-03-26T09:03:50.930Z,89.64
2019-03-26T09:04:50.934Z,91.82
2019-03-26T09:05:50.942Z,90.96
2019-03-26T09:06:50.937Z,88.98
2019-03-26T09:07:50.947Z,91.67
2019-03-26T09:08:50.951Z,87.66
2019-03-26T09:09:50.956Z,88.79
2019-03-26T09:10:51.974Z,91.63
2019-03-26T09:11:50.962Z,93.70
2019-03-26T09:12:50.968Z,94.03
2019-03-26T09:13:50.974Z,92.19
2019-03-26T09:14:50.976Z,88.98
2019-03-26T09:15:50.980Z,89.64
2019-03-26T09:16:50.985Z,90.35
2019-03-26T09:17:50.993Z,89.87
2019-03-26T09:18:50.998Z,86.15
2019-03-26T09:19:51.002Z,87.94
2019-03-26T09:20:51.005Z,86.62
2019-03-26T09:21:51.010Z,86.62
2019-03-26T09:22:51.017Z,90.91
2019-03-26T09:23:51.022Z,93.09
2019-03-26T09:24:51.027Z,85.05
2019-03-26T09:25:51.031Z,80.76
2019-03-26T09:26:51.037Z,89.97
2019-03-26T09:27:52.502Z,89.12
2019-03-26T09:28:51.044Z,88.84
2019-03-26T09:29:51.049Z,86.66
2019-03-26T09:30:51.055Z,84.49
2019-03-26T09:31:51.060Z,84.68
2019-03-26T09:32:51.063Z,87.04
2019-03-26T09:33:51.071Z,89.45
2019-03-26T09:34:51.074Z,92.94
2019-03-26T09:35:51.081Z,89.17
2019-03-26T09:36:51.087Z,88.22
2019-03-26T09:37:51.087Z,86.71
2019-03-26T09:38:51.104Z,88.74
2019-03-26T09:39:51.191Z,82.97
2019-03-26T09:40:51.104Z,79.18
2019-03-26T09:41:51.108Z,78.58
2019-03-26T09:42:51.117Z,78.10
2019-03-26T09:43:51.122Z,77.63
2019-03-26T09:44:51.127Z,79.05
2019-03-26T09:45:51.130Z,81.22
2019-03-26T09:46:51.136Z,87.55
2019-03-26T09:47:51.142Z,81.03
2019-03-26T09:48:51.150Z,80.18
2019-03-26T09:49:51.152Z,81.51
2019-03-26T09:50:51.163Z,82.73
2019-03-26T09:51:51.163Z,79.05
2019-03-26T09:52:51.172Z,78.95
2019-03-26T09:53:51.181Z,77.59
2019-03-26T09:54:51.183Z,81.65
2019-03-26T09:55:51.189Z,88.12
2019-03-26T09:56:51.192Z,93.61
2019-03-26T09:57:51.204Z,85.10
2019-03-26T09:58:51.205Z,77.91
2019-03-26T09:59:51.209Z,81.64
2019-03-26T10:00:51.313Z,84.20
2019-03-26T10:01:51.221Z,86.56
2019-03-26T10:02:51.227Z,82.59
2019-03-26T10:03:51.232Z,78.14
2019-03-26T10:04:51.238Z,78.67
2019-03-26T10:05:51.248Z,79.14
2019-03-26T10:06:51.257Z,80.27
2019-03-26T10:07:51.256Z,83.40
2019-03-26T10:08:52.655Z,84.39
2019-03-26T10:09:51.273Z,83.34
2019-03-26T10:10:51.296Z,81.07
2019-03-26T10:11:51.280Z,77.91
2019-03-26T10:12:51.294Z,81.55
2019-03-26T10:13:51.292Z,78.01
2019-03-26T10:14:51.299Z,77.25
2019-03-26T10:15:51.307Z,80.75
2019-03-26T10:16:51.309Z,79.24
2019-03-26T10:17:51.315Z,79.56
2019-03-26T10:18:51.328Z,79.28
2019-03-26T10:19:51.331Z,77.95
2019-03-26T10:20:51.336Z,78.05
2019-03-26T10:21:51.338Z,74.51
2019-03-26T10:22:51.348Z,74.45
2019-03-26T10:23:51.354Z,73.50
2019-03-26T10:24:51.356Z,74.51
2019-03-26T10:25:51.367Z,73.47
2019-03-26T10:26:51.371Z,75.87
2019-03-26T10:27:51.376Z,72.85
2019-03-26T10:28:51.384Z,70.29
2019-03-26T10:29:51.390Z,75.21
2019-03-26T10:30:51.394Z,73.50
2019-03-26T10:31:51.395Z,74.02
2019-03-26T10:32:51.402Z,70.76
2019-03-26T10:33:51.412Z,70.29
2019-03-26T10:34:51.417Z,72.37
2019-03-26T10:35:51.426Z,71.74
2019-03-26T10:36:51.429Z,72.97
2019-03-26T10:37:51.434Z,70.61
2019-03-26T10:39:05.018Z,67.86
2019-03-26T10:39:51.445Z,68.33
2019-03-26T10:40:51.450Z,71.69
2019-03-26T10:41:51.458Z,66.73
2019-03-26T10:42:51.467Z,67.77
2019-03-26T10:43:51.471Z,70.26
2019-03-26T10:44:51.477Z,67.01
2019-03-26T10:45:51.485Z,65.47
2019-03-26T10:46:51.491Z,68.77
2019-03-26T10:47:51.494Z,69.57
2019-03-26T10:48:51.504Z,70.14
2019-03-26T10:49:51.511Z,67.11
2019-03-26T10:50:51.515Z,66.92
2019-03-26T10:51:51.527Z,69.00
2019-03-26T10:52:51.530Z,65.12
2019-03-26T10:53:51.535Z,65.84
2019-03-26T10:54:51.541Z,68.81
2019-03-26T10:55:51.550Z,66.73
2019-03-26T10:56:51.555Z,66.63
2019-03-26T10:57:51.560Z,65.31
2019-03-26T10:58:51.570Z,65.97
2019-03-26T10:59:51.574Z,66.35
2019-03-26T11:00:51.583Z,67.11
2019-03-26T11:01:51.592Z,67.99
2019-03-26T11:02:54.084Z,67.71
2019-03-26T11:03:51.607Z,65.72
2019-03-26T11:04:51.607Z,61.74
2019-03-26T11:05:51.613Z,63.92
2019-03-26T11:06:51.621Z,64.14
2019-03-26T11:07:51.628Z,61.18
2019-03-26T11:08:51.633Z,63.16
2019-03-26T11:09:51.643Z,60.70
2019-03-26T11:10:51.649Z,62.31
2019-03-26T11:11:51.656Z,63.26
2019-03-26T11:12:51.665Z,60.03
2019-03-26T11:13:51.666Z,59.47
2019-03-26T11:14:51.672Z,57.39
2019-03-26T11:15:51.682Z,59.78
2019-03-26T11:16:51.687Z,60.35
2019-03-26T11:17:51.698Z,57.86
2019-03-26T11:18:51.703Z,59.19
2019-03-26T11:19:51.707Z,59.19
2019-03-26T11:21:01.950Z,60.70
2019-03-26T11:21:51.722Z,59.00
2019-03-26T11:22:51.731Z,60.35
2019-03-26T11:23:51.737Z,60.03
2019-03-26T11:24:51.745Z,59.47
2019-03-26T11:25:51.750Z,59.94
2019-03-26T11:26:51.761Z,60.51
2019-03-26T11:27:51.767Z,60.25
2019-03-26T11:28:51.771Z,59.19
2019-03-26T11:29:51.780Z,58.81
2019-03-26T11:30:51.791Z,58.81
2019-03-26T11:31:51.800Z,61.02
2019-03-26T11:32:51.804Z,59.12
2019-03-26T11:33:51.815Z,57.04
2019-03-26T11:34:51.819Z,55.21
2019-03-26T11:35:51.829Z,56.51
2019-03-26T11:36:51.835Z,59.25
2019-03-26T11:37:51.845Z,60.13
2019-03-26T11:38:51.851Z,59.00
2019-03-26T11:39:51.855Z,60.73
2019-03-26T11:40:51.867Z,58.65
2019-03-26T11:41:51.868Z,57.42
2019-03-26T11:42:51.885Z,56.85
2019-03-26T11:43:51.882Z,56.94
2019-03-26T11:44:51.895Z,54.23
2019-03-26T11:45:51.904Z,57.86
2019-03-26T11:46:51.913Z,57.95
2019-03-26T11:47:51.912Z,55.77
2019-03-26T11:48:51.922Z,56.06
2019-03-26T11:49:51.926Z,57.51
2019-03-26T11:50:51.936Z,56.66
2019-03-26T11:51:51.944Z,57.73
2019-03-26T11:52:51.952Z,53.75
2019-03-26T11:53:51.957Z,52.01
2019-03-26T11:54:51.963Z,52.39
2019-03-26T11:55:51.975Z,53.72
2019-03-26T11:56:51.987Z,54.22
2019-03-26T11:57:51.991Z,51.16
2019-03-26T11:58:51.993Z,52.75
2019-03-26T11:59:52.001Z,53.78
2019-03-26T12:00:52.011Z,55.52
2019-03-26T12:01:52.557Z,55.71
2019-03-26T12:02:52.026Z,54.38
2019-03-26T12:03:52.036Z,53.91
2019-03-26T12:04:52.043Z,55.24
2019-03-26T12:05:52.051Z,56.30
2019-03-26T12:06:52.057Z,54.47
2019-03-26T12:07:52.070Z,54.98
2019-03-26T12:08:52.076Z,53.84
2019-03-26T12:09:52.078Z,52.98
2019-03-26T12:10:52.086Z,54.98
2019-03-26T12:11:52.100Z,53.20
2019-03-26T12:12:52.100Z,53.87
2019-03-26T12:13:52.109Z,52.04
2019-03-26T12:14:52.119Z,50.59
2019-03-26T12:15:52.126Z,51.64
2019-03-26T12:16:52.137Z,52.80
2019-03-26T12:17:52.144Z,52.70
2019-03-26T12:18:52.156Z,51.85
2019-03-26T12:19:52.165Z,51.45
2019-03-26T12:20:52.167Z,51.73
2019-03-26T12:21:52.177Z,52.29
2019-03-26T12:22:52.183Z,54.13
2019-03-26T12:23:52.196Z,53.27
2019-03-26T12:24:52.202Z,52.80
2019-03-26T12:25:52.219Z,51.85
2019-03-26T12:26:52.218Z,51.18
2019-03-26T12:27:52.223Z,52.73
2019-03-26T12:28:52.246Z,51.03
2019-03-26T12:29:52.240Z,50.64
2019-03-26T12:30:52.251Z,51.33
2019-03-26T12:31:52.259Z,48.65
2019-03-26T12:32:52.268Z,47.96
2019-03-26T12:33:52.280Z,48.63
2019-03-26T12:34:52.285Z,49.76
2019-03-26T12:35:52.303Z,50.31
2019-03-26T12:36:52.302Z,51.47
2019-03-26T12:37:52.310Z,53.58
2019-03-26T12:38:52.318Z,49.79
2019-03-26T12:39:59.390Z,49.22
2019-03-26T12:40:52.341Z,47.89
2019-03-26T12:41:52.345Z,46.66
2019-03-26T12:42:52.359Z,46.56
2019-03-26T12:43:52.366Z,48.84
2019-03-26T12:44:52.374Z,46.94
2019-03-26T12:45:52.385Z,47.23
2019-03-26T12:46:52.389Z,47.99
2019-03-26T12:47:52.398Z,49.43
2019-03-26T12:48:52.407Z,46.70
2019-03-26T12:49:52.418Z,45.76
2019-03-26T12:50:52.424Z,45.45
2019-03-26T12:51:52.433Z,43.74
2019-03-26T12:52:52.443Z,43.79